Time;durP1;ratioP1;P1;durP2;ratioP2;P2;SDS_P1;SDS_P2;PMS_P1;PMS_P2;Temp;Humidity;BMP_temperature;BMP_pressure;BME280_temperature;BME280_humidity;BME280_pressure;Samples;Min_cycle;Max_cycle;Signal;HPM_P1;HPM_P2
2023/01/12 00:02:19;;;;;;;14.07;3.58;;;;;;;6.13;100.00;100532.22;4916661;29;20054;-80
2023/01/12 00:04:47;;;;;;;19.55;3.67;;;;;;;6.20;100.00;100536.69;4946133;29;20424;-80
2023/01/12 00:07:15;;;;;;;20.25;3.47;;;;;;;6.24;100.00;100530.66;4905588;29;20790;-80
2023/01/12 00:09:43;;;;;;;15.13;3.15;;;;;;;6.29;100.00;100522.84;4943429;29;20051;-81
2023/01/12 00:12:11;;;;;;;16.75;3.28;;;;;;;6.32;100.00;100529.91;4901455;29;20052;-79
2023/01/12 00:14:39;;;;;;;21.17;3.20;;;;;;;6.34;100.00;100528.19;4914479;29;20055;-79
2023/01/12 00:17:07;;;;;;;19.52;2.83;;;;;;;6.34;100.00;100528.19;4895717;29;20051;-79
2023/01/12 00:19:37;;;;;;;14.00;3.00;;;;;;;6.31;100.00;100530.75;4910458;29;20504;-79
2023/01/12 00:22:10;;;;;;;19.87;4.17;;;;;;;6.30;100.00;100523.75;4888681;29;20052;-79
2023/01/12 00:24:41;;;;;;;23.10;4.53;;;;;;;6.30;100.00;100521.16;4930498;29;20063;-79
2023/01/12 00:27:11;;;;;;;23.80;3.70;;;;;;;6.29;100.00;100512.38;4913382;29;20044;-79
2023/01/12 00:29:38;;;;;;;11.40;3.00;;;;;;;6.27;100.00;100508.00;4919780;29;20069;-79
2023/01/12 00:32:13;;;;;;;12.02;2.30;;;;;;;6.26;100.00;100494.06;4897275;29;20597;-80
2023/01/12 00:34:41;;;;;;;9.30;2.38;;;;;;;6.27;100.00;100492.31;4933405;29;20048;-80
2023/01/12 00:37:09;;;;;;;14.40;3.20;;;;;;;6.28;100.00;100494.06;4930229;29;20040;-79
2023/01/12 00:39:37;;;;;;;15.38;3.20;;;;;;;6.31;100.00;100507.19;4914905;29;20417;-79
2023/01/12 00:47:42;;;;;;;15.82;3.03;;;;;;;6.46;100.00;100494.31;4895415;29;20490;-80
2023/01/12 00:50:10;;;;;;;16.60;3.08;;;;;;;6.50;100.00;100498.72;4922548;29;20450;-80
2023/01/12 00:52:37;;;;;;;18.55;3.75;;;;;;;6.55;100.00;100499.69;4904491;29;20055;-81
2023/01/12 00:55:05;;;;;;;17.92;4.03;;;;;;;6.58;100.00;100493.63;4918579;29;20570;-81
2023/01/12 00:57:33;;;;;;;23.90;3.20;;;;;;;6.60;100.00;100498.03;4915499;29;20047;-80
2023/01/12 01:00:01;;;;;;;18.17;3.33;;;;;;;6.64;100.00;100507.69;4902824;29;20066;-81
2023/01/12 01:02:28;;;;;;;15.82;3.20;;;;;;;6.66;100.00;100501.59;4899966;29;20070;-80
2023/01/12 01:04:56;;;;;;;29.55;4.70;;;;;;;6.65;100.00;100495.44;4893673;29;20059;-80
2023/01/12 01:07:23;;;;;;;12.65;2.63;;;;;;;6.66;100.00;100498.97;4891136;29;20513;-81
2023/01/12 01:09:51;;;;;;;9.82;2.42;;;;;;;6.63;100.00;100505.94;4930151;29;20054;-81
2023/01/12 01:12:19;;;;;;;15.73;2.88;;;;;;;6.59;100.00;100501.50;4927626;29;20051;-81
2023/01/12 01:14:47;;;;;;;14.75;2.97;;;;;;;6.57;100.00;100499.72;4918922;29;20066;-81
2023/01/12 01:17:14;;;;;;;16.70;3.05;;;;;;;6.55;100.00;100501.44;4920294;29;20048;-81
2023/01/12 01:19:42;;;;;;;18.27;3.38;;;;;;;6.52;100.00;100497.03;4844521;29;20044;-81
2023/01/12 01:22:11;;;;;;;17.45;2.83;;;;;;;6.50;100.00;100495.25;4901837;29;20044;-81
2023/01/12 01:24:40;;;;;;;21.05;3.53;;;;;;;6.49;100.00;100498.75;4868954;29;20134;-81
2023/01/12 01:27:07;;;;;;;26.77;4.68;;;;;;;6.47;100.00;100490.84;4892487;29;20692;-81
2023/01/12 01:29:35;;;;;;;19.92;3.78;;;;;;;6.44;100.00;100496.03;4895196;29;20423;-80
2023/01/12 01:32:03;;;;;;;27.40;4.20;;;;;;;6.43;100.00;100483.81;4898117;29;20051;-81
2023/01/12 01:34:31;;;;;;;21.02;4.53;;;;;;;6.42;100.00;100489.91;4854582;29;20062;-80
2023/01/12 01:36:58;;;;;;;24.95;3.75;;;;;;;6.40;100.00;100478.53;4929790;29;20040;-79
2023/01/12 01:39:25;;;;;;;32.20;4.35;;;;;;;6.42;100.00;100475.06;4905525;29;20059;-80
2023/01/12 01:41:53;;;;;;;17.23;3.17;;;;;;;6.43;100.00;100479.47;4912565;29;20501;-79
2023/01/12 01:44:30;;;;;;;26.25;4.30;;;;;;;6.46;100.00;100472.50;4904560;29;20066;-79
2023/01/12 01:47:01;;;;;;;22.42;3.70;;;;;;;6.50;100.00;100474.31;4896424;29;20517;-79
2023/01/12 01:49:41;;;;;;;29.58;4.40;;;;;;;6.50;100.00;100467.31;4876212;29;20051;-79
2023/01/12 01:52:48;;;;;;;25.77;4.28;;;;;;;6.51;100.00;100463.84;4906298;29;20055;-80
2023/01/12 01:55:22;;;;;;;24.00;3.58;;;;;;;6.54;100.00;100456.06;4833341;29;20065;-80
2023/01/12 01:57:56;;;;;;;20.73;4.82;;;;;;;6.55;100.00;100463.03;4873626;29;20059;-79
2023/01/12 02:00:24;;;;;;;26.17;3.83;;;;;;;6.57;100.00;100457.81;4904091;29;20055;-79
2023/01/12 02:02:53;;;;;;;15.80;3.50;;;;;;;6.60;100.00;100465.72;4916589;29;20052;-81
2023/01/12 02:05:24;;;;;;;25.17;4.68;;;;;;;6.60;100.00;100448.28;4878618;29;20055;-80
2023/01/12 02:07:54;;;;;;;23.70;3.85;;;;;;;6.62;100.00;100445.69;4909508;29;20051;-81
2023/01/12 02:10:21;;;;;;;20.92;3.78;;;;;;;6.61;100.00;100439.53;4911345;29;20174;-80
2023/01/12 02:16:25;;;;;;;12.70;2.47;;;;;;;6.61;100.00;100444.78;4885874;29;20082;-80
2023/01/12 02:19:10;;;;;;;22.05;3.60;;;;;;;6.62;100.00;100440.44;4930633;29;20048;-80
2023/01/12 02:21:59;;;;;;;19.10;3.92;;;;;;;6.61;100.00;100433.44;4878016;29;20044;-80
2023/01/12 02:24:51;;;;;;;18.40;3.67;;;;;;;6.59;100.00;100422.06;4915352;29;20055;-79
2023/01/12 02:27:51;;;;;;;25.17;3.88;;;;;;;6.59;100.00;100409.84;4897282;29;20401;-79
2023/01/12 02:30:33;;;;;;;21.75;3.60;;;;;;;6.59;100.00;100401.13;4898949;29;20056;-80
2023/01/12 02:33:26;;;;;;;20.50;3.75;;;;;;;6.58;100.00;100405.50;4909062;29;20051;-80
2023/01/12 02:36:11;;;;;;;21.95;4.00;;;;;;;6.60;100.00;100402.91;4865232;29;20068;-80
2023/01/12 02:38:56;;;;;;;20.95;3.15;;;;;;;6.61;100.00;100387.19;4927212;29;20048;-80
2023/01/12 02:44:52;;;;;;;21.08;4.07;;;;;;;6.68;100.00;100366.34;4888258;29;20052;-80
2023/01/12 02:47:33;;;;;;;18.08;3.50;;;;;;;6.70;100.00;100364.59;4890124;29;20157;-80
2023/01/12 02:50:02;;;;;;;;;;;;;;;6.72;100.00;100360.25;4910738;29;20055;-79
2023/01/12 02:52:32;;;;;;;23.38;3.38;;;;;;;6.75;100.00;100355.06;4856995;29;19923;-81
2023/01/12 02:55:02;;;;;;;26.30;3.97;;;;;;;6.77;100.00;100354.22;4908657;29;20062;-81
2023/01/12 02:57:32;;;;;;;21.85;4.05;;;;;;;6.81;100.00;100355.13;4906572;29;20516;-80
2023/01/12 03:00:03;;;;;;;26.03;4.17;;;;;;;6.83;100.00;100342.94;4914869;29;20055;-79
2023/01/12 03:02:31;;;;;;;29.88;4.28;;;;;;;6.86;100.00;100344.69;4894424;29;20055;-81
2023/01/12 03:05:00;;;;;;;23.52;4.10;;;;;;;6.87;100.00;100336.84;4911088;29;20077;-81
2023/01/12 03:07:27;;;;;;;26.98;4.03;;;;;;;6.90;100.00;100333.38;4888472;29;20044;-80
2023/01/12 03:10:11;;;;;;;22.20;3.53;;;;;;;6.91;100.00;100335.16;4912390;29;20052;-80
2023/01/12 03:12:40;;;;;;;22.55;4.13;;;;;;;6.93;100.00;100323.81;4907427;29;20060;-80
2023/01/12 03:15:11;;;;;;;29.80;4.03;;;;;;;6.95;100.00;100329.06;4905336;29;20048;-81
2023/01/12 03:17:45;;;;;;;28.83;4.15;;;;;;;6.97;100.00;100315.09;4913102;29;20075;-80
2023/01/12 03:20:24;;;;;;;25.35;4.32;;;;;;;6.98;100.00;100311.63;4917260;29;20538;-80
2023/01/12 03:22:59;;;;;;;25.10;5.45;;;;;;;6.99;100.00;100312.50;4906936;29;20505;-80
2023/01/12 03:25:30;;;;;;;33.55;4.10;;;;;;;6.98;100.00;100298.53;4928850;29;20048;-80
2023/01/12 03:27:58;;;;;;;;;;;;;;;6.99;100.00;100300.31;4926710;29;20048;-80
2023/01/12 03:30:42;;;;;;;21.67;4.03;;;;;;;7.00;100.00;100295.94;4930459;29;19933;-80
2023/01/12 03:33:11;;;;;;;20.67;4.45;;;;;;;7.00;100.00;100288.94;4917170;29;20507;-80
2023/01/12 03:36:14;;;;;;;29.38;4.93;;;;;;;7.01;100.00;100280.25;4923707;29;20378;-79
2023/01/12 03:38:51;;;;;;;18.83;3.38;;;;;;;7.02;100.00;100274.13;4927772;29;20675;-79
2023/01/12 03:41:35;;;;;;;19.55;3.92;;;;;;;7.04;100.00;100271.53;4911147;29;20051;-81
2023/01/12 03:44:06;;;;;;;21.10;3.70;;;;;;;7.05;100.00;100264.53;4913916;29;20051;-81
2023/01/12 03:46:52;;;;;;;24.15;5.07;;;;;;;7.06;100.00;100261.06;4927683;29;20055;-81
2023/01/12 03:49:46;;;;;;;28.85;4.95;;;;;;;7.06;100.00;100254.06;4921930;29;20055;-81
2023/01/12 03:52:17;;;;;;;26.88;3.50;;;;;;;7.08;100.00;100252.34;4913671;29;20051;-80
2023/01/12 03:54:46;;;;;;;22.70;4.55;;;;;;;7.09;100.00;100234.88;4869647;29;20055;-82
2023/01/12 03:57:15;;;;;;;21.70;4.38;;;;;;;7.12;100.00;100225.28;4937475;29;20047;-80
2023/01/12 03:59:43;;;;;;;22.13;4.35;;;;;;;7.14;100.00;100228.78;4931471;29;20040;-80
2023/01/12 04:02:11;;;;;;;24.33;5.22;;;;;;;7.16;100.00;100226.19;4894139;29;20079;-79
2023/01/12 04:04:39;;;;;;;20.95;3.88;;;;;;;7.16;100.00;100216.56;4919445;29;20047;-81
2023/01/12 04:07:06;;;;;;;28.55;5.10;;;;;;;7.17;100.00;100212.25;4912494;29;20067;-80
2023/01/12 04:09:33;;;;;;;23.00;4.28;;;;;;;7.18;100.00;100196.53;4910264;29;20051;-81
2023/01/12 04:12:10;;;;;;;30.60;5.47;;;;;;;7.19;100.00;100187.78;4884222;29;20048;-81
2023/01/12 04:14:43;;;;;;;19.35;4.22;;;;;;;7.20;100.00;100196.50;4929814;29;20055;-81
2023/01/12 04:17:14;;;;;;;21.77;4.18;;;;;;;7.21;100.00;100193.03;4910525;29;20131;-81
2023/01/12 04:19:42;;;;;;;15.77;3.83;;;;;;;7.23;100.00;100178.19;4898453;29;20054;-82
2023/01/12 04:25:00;;;;;;;13.75;2.88;;;;;;;7.26;100.00;100177.34;4913398;29;20060;-82
2023/01/12 04:27:28;;;;;;;18.13;3.25;;;;;;;7.27;100.00;100166.00;4858740;29;20052;-81
2023/01/12 04:29:56;;;;;;;17.33;3.83;;;;;;;7.27;100.00;100153.75;4915548;29;20063;-81
2023/01/12 04:32:24;;;;;;;17.25;3.15;;;;;;;7.27;100.00;100153.75;4912305;29;20043;-81
2023/01/12 04:34:51;;;;;;;16.40;3.28;;;;;;;7.28;100.00;100145.03;4875570;29;20071;-80
2023/01/12 04:37:19;;;;;;;25.38;4.75;;;;;;;7.29;100.00;100145.91;4894959;29;20048;-80
2023/01/12 04:39:46;;;;;;;18.15;3.67;;;;;;;7.29;100.00;100136.28;4897422;29;20059;-81
2023/01/12 04:45:00;;;;;;;25.42;3.30;;;;;;;7.30;100.00;100114.47;4916583;29;20047;-81
2023/01/12 04:47:28;;;;;;;22.40;3.35;;;;;;;7.30;100.00;100117.09;4892926;29;20050;-81
2023/01/12 04:49:56;;;;;;;19.10;3.50;;;;;;;7.29;100.00;100097.00;4896214;29;20047;-80
2023/01/12 04:52:23;;;;;;;11.10;2.92;;;;;;;7.31;100.00;100102.25;4892634;29;20609;-80
2023/01/12 04:54:50;;;;;;;18.30;3.60;;;;;;;7.31;100.00;100097.88;4914414;29;20052;-81
2023/01/12 04:57:18;;;;;;;18.95;2.90;;;;;;;7.32;100.00;100088.28;4888307;29;20468;-80
2023/01/12 04:59:45;;;;;;;12.10;2.75;;;;;;;7.33;100.00;100083.03;4874285;29;20044;-80
2023/01/12 05:02:13;;;;;;;9.13;2.55;;;;;;;7.33;100.00;100069.03;4877566;29;20056;-80
2023/01/12 05:04:41;;;;;;;10.23;2.63;;;;;;;7.31;100.00;100076.03;4921962;29;20051;-80
2023/01/12 05:07:09;;;;;;;7.25;1.92;;;;;;;7.30;100.00;100067.31;4897639;29;24182;-79
2023/01/12 05:12:27;;;;;;;14.68;2.85;;;;;;;7.31;100.00;100037.59;4916408;29;20063;-80
2023/01/12 05:14:55;;;;;;;9.77;2.75;;;;;;;7.31;100.00;100026.25;4868517;29;20051;-80
2023/01/12 05:17:22;;;;;;;9.93;2.50;;;;;;;7.30;100.00;100004.41;4916062;29;20063;-79
2023/01/12 05:19:50;;;;;;;5.13;1.83;;;;;;;7.31;100.00;100003.50;4890924;29;20040;-81
2023/01/12 05:22:17;;;;;;;5.35;1.42;;;;;;;7.31;100.00;99997.41;4893320;29;20152;-81
2023/01/12 05:24:44;;;;;;;5.80;1.65;;;;;;;7.29;100.00;99971.19;4929433;29;20043;-81
2023/01/12 05:27:12;;;;;;;10.38;1.75;;;;;;;7.28;100.00;99940.63;4878996;29;20051;-79
2023/01/12 05:29:39;;;;;;;4.50;1.30;;;;;;;7.28;100.00;99930.16;4884978;29;20059;-81
2023/01/12 05:32:06;;;;;;;10.70;2.35;;;;;;;7.29;100.00;99925.78;4900011;29;20052;-80
2023/01/12 05:34:34;;;;;;;7.43;1.85;;;;;;;7.26;100.00;99913.56;4918520;29;20051;-80
2023/01/12 05:37:01;;;;;;;7.15;1.77;;;;;;;7.28;100.00;99903.94;4918514;29;20538;-79
2023/01/12 05:39:28;;;;;;;6.80;1.70;;;;;;;7.27;100.00;99890.84;4921102;29;20062;-79
2023/01/12 05:44:42;;;;;;;2.95;1.65;;;;;;;7.25;100.00;99872.47;4896063;29;20056;-79
2023/01/12 05:47:10;;;;;;;5.57;1.63;;;;;;;7.23;100.00;99856.75;4884123;29;20052;-79
2023/01/12 05:49:37;;;;;;;4.13;1.40;;;;;;;7.23;100.00;99858.50;4884156;29;20052;-80
2023/01/12 05:52:05;;;;;;;4.88;1.50;;;;;;;7.24;100.00;99852.41;4905555;29;20063;-82
2023/01/12 05:54:33;;;;;;;4.72;1.60;;;;;;;7.23;100.00;99843.66;4907651;29;20721;-81
2023/01/12 05:57:00;;;;;;;4.60;1.67;;;;;;;7.22;100.00;99839.28;4929895;29;20058;-79
2023/01/12 05:59:27;;;;;;;5.53;1.95;;;;;;;7.21;100.00;99836.66;4872182;29;20501;-79
2023/01/12 06:01:55;;;;;;;6.15;1.33;;;;;;;7.21;100.00;99831.44;4918689;29;20068;-81
2023/01/12 06:04:24;;;;;;;4.00;1.30;;;;;;;7.20;100.00;99830.56;4903154;29;20050;-81
2023/01/12 06:06:52;;;;;;;4.60;1.50;;;;;;;7.21;100.00;99836.66;4913441;29;20051;-80
2023/01/12 06:09:19;;;;;;;1.58;1.10;;;;;;;7.19;100.00;99812.22;4912476;29;20044;-82
2023/01/12 06:14:32;;;;;;;3.33;1.40;;;;;;;7.19;100.00;99806.97;4917816;29;20036;-79
2023/01/12 06:17:00;;;;;;;4.30;1.50;;;;;;;7.19;100.00;99807.84;4894069;29;20056;-80
2023/01/12 06:19:27;;;;;;;6.13;1.30;;;;;;;7.19;100.00;99809.59;4915020;29;20055;-81
2023/01/12 06:21:58;;;;;;;2.38;1.25;;;;;;;7.20;100.00;99790.38;4917770;29;20047;-81
2023/01/12 06:24:27;;;;;;;;;;;;;;;7.21;100.00;99793.00;4913161;29;20535;-81
2023/01/12 06:26:54;;;;;;;3.70;1.42;;;;;;;7.19;100.00;99797.38;4922976;29;20019;-81
2023/01/12 06:29:22;;;;;;;1.27;1.00;;;;;;;7.21;100.00;99808.72;4921926;29;20048;-81
2023/01/12 06:31:49;;;;;;;2.88;1.10;;;;;;;7.23;100.00;99800.84;4883080;29;20067;-80
2023/01/12 06:34:16;;;;;;;2.95;1.00;;;;;;;7.25;100.00;99806.97;4931902;29;20457;-80
2023/01/12 06:36:44;;;;;;;3.05;0.93;;;;;;;7.26;100.00;99808.72;4924730;29;20063;-80
2023/01/12 06:39:12;;;;;;;5.50;1.35;;;;;;;7.27;100.00;99799.97;4931610;29;20046;-81
2023/01/12 06:44:25;;;;;;;3.70;1.50;;;;;;;7.31;100.00;99795.63;4917863;29;20544;-81
2023/01/12 06:46:52;;;;;;;1.85;1.30;;;;;;;7.33;100.00;99799.97;4875567;29;20059;-79
2023/01/12 06:49:20;;;;;;;1.30;1.05;;;;;;;7.35;100.00;99798.25;4922121;29;20044;-79
2023/01/12 06:51:50;;;;;;;1.10;1.00;;;;;;;7.38;100.00;99806.09;4931301;29;20066;-80
2023/01/12 06:54:17;;;;;;;3.72;1.10;;;;;;;7.42;100.00;99788.63;4909773;29;20047;-80
2023/01/12 06:56:48;;;;;;;2.03;1.20;;;;;;;7.45;100.00;99795.59;4913688;29;20074;-80
2023/01/12 06:59:15;;;;;;;1.75;0.82;;;;;;;7.48;100.00;99795.59;4888100;29;20063;-82
2023/01/12 07:01:43;;;;;;;1.10;0.90;;;;;;;7.50;100.00;99796.47;4917291;29;20055;-80
2023/01/12 07:04:10;;;;;;;1.50;0.80;;;;;;;7.51;100.00;99788.59;4865302;29;20052;-81
2023/01/12 07:06:38;;;;;;;3.10;0.98;;;;;;;7.53;100.00;99792.09;4903965;29;20067;-82
2023/01/12 07:09:05;;;;;;;1.77;0.80;;;;;;;7.54;100.00;99783.38;4923485;29;20716;-80
2023/01/12 07:11:32;;;;;;;1.40;0.88;;;;;;;7.58;100.00;99786.84;4889543;29;20051;-80
2023/01/12 07:14:01;;;;;;;1.77;0.85;;;;;;;7.60;100.00;99777.25;4908018;29;20048;-80
2023/01/12 07:16:28;;;;;;;1.52;0.85;;;;;;;7.62;100.00;99778.13;4935314;28;20711;-79
2023/01/12 07:18:57;;;;;;;1.63;0.80;;;;;;;7.66;100.00;99779.84;4854123;29;20071;-79
2023/01/12 07:21:25;;;;;;;1.58;1.00;;;;;;;7.68;100.00;99790.34;4903233;29;20584;-79
2023/01/12 07:23:52;;;;;;;1.85;0.75;;;;;;;7.71;100.00;99793.84;4908428;29;20047;-79
2023/01/12 07:26:20;;;;;;;1.40;0.98;;;;;;;7.75;100.00;99792.94;4881445;29;20060;-79
2023/01/12 07:28:47;;;;;;;2.70;1.10;;;;;;;7.81;100.00;99802.56;4865254;29;20063;-78
2023/01/12 07:31:14;;;;;;;2.20;1.05;;;;;;;7.86;100.00;99799.91;4907019;29;20052;-81
2023/01/12 07:33:42;;;;;;;2.50;1.00;;;;;;;7.90;100.00;99791.13;4847802;29;20055;-79
2023/01/12 07:36:09;;;;;;;2.83;1.45;;;;;;;7.95;100.00;99798.13;4894162;29;20071;-81
2023/01/12 07:38:37;;;;;;;5.43;1.38;;;;;;;8.03;100.00;99803.34;4901379;29;20060;-79
2023/01/12 07:41:04;;;;;;;2.42;1.52;;;;;;;8.07;100.00;99797.22;4906863;29;20047;-79
2023/01/12 07:43:32;;;;;;;4.47;2.00;;;;;;;8.13;100.00;99791.97;4901171;29;20059;-81
2023/01/12 07:46:00;;;;;;;8.00;1.60;;;;;;;8.17;100.00;99798.94;4907778;29;20090;-80
2023/01/12 07:48:27;;;;;;;3.50;1.75;;;;;;;8.23;100.00;99791.91;4889084;29;20525;-81
2023/01/12 07:50:57;;;;;;;6.75;1.73;;;;;;;8.27;100.00;99797.13;4893598;29;20048;-81
2023/01/12 07:53:26;;;;;;;4.95;1.70;;;;;;;8.32;100.00;99802.38;4908603;29;20055;-81
2023/01/12 07:55:54;;;;;;;3.75;1.83;;;;;;;8.36;100.00;99804.13;4900713;29;20398;-81
2023/01/12 07:58:21;;;;;;;8.73;1.88;;;;;;;8.39;100.00;99801.44;4927984;29;20070;-79
2023/01/12 08:00:48;;;;;;;11.02;2.35;;;;;;;8.44;100.00;99804.97;4902690;29;20043;-80
2023/01/12 08:03:16;;;;;;;7.35;1.92;;;;;;;8.47;100.00;99807.59;4873314;29;20078;-82
2023/01/12 08:05:43;;;;;;;9.68;2.30;;;;;;;8.51;100.00;99808.47;4906147;29;20063;-82
2023/01/12 08:08:11;;;;;;;14.48;2.97;;;;;;;8.55;100.00;99811.03;4902065;29;20059;-83
2023/01/12 08:10:39;;;;;;;5.97;2.00;;;;;;;8.58;100.00;99815.41;4879258;29;20055;-80
2023/01/12 08:13:07;;;;;;;11.77;3.53;;;;;;;8.63;100.00;99807.50;4898554;29;20048;-80
2023/01/12 08:15:42;;;;;;;10.35;2.30;;;;;;;8.67;100.00;99803.97;4884485;29;20051;-82
2023/01/12 08:18:28;;;;;;;12.98;2.50;;;;;;;8.73;100.00;99824.94;4912457;29;20086;-81
2023/01/12 08:21:03;;;;;;;11.20;2.63;;;;;;;8.77;100.00;99818.78;4878531;29;20432;-81
2023/01/12 08:23:34;;;;;;;18.50;3.35;;;;;;;8.82;100.00;99831.91;4924314;29;20047;-79
2023/01/12 08:26:09;;;;;;;19.38;3.60;;;;;;;8.88;100.00;99830.09;4913029;29;20493;-80
2023/01/12 08:28:42;;;;;;;17.02;3.05;;;;;;;8.93;100.00;99830.97;4919984;29;20051;-82
2023/01/12 08:31:13;;;;;;;20.33;3.28;;;;;;;9.01;100.00;99819.53;4909138;29;20040;-79
2023/01/12 08:33:42;;;;;;;12.10;3.17;;;;;;;9.05;100.00;99837.88;4918581;29;20059;-79
2023/01/12 08:36:13;;;;;;;18.27;2.78;;;;;;;9.12;100.00;99836.09;4884155;29;20517;-79
2023/01/12 08:38:41;;;;;;;13.57;3.20;;;;;;;9.17;100.00;99836.94;4926970;29;20051;-79
2023/01/12 08:46:54;;;;;;;9.95;2.28;;;;;;;9.34;100.00;99855.22;4908515;29;20489;-79
2023/01/12 08:49:24;;;;;;;16.30;2.90;;;;;;;9.40;100.00;99851.69;4889993;29;20052;-79
2023/01/12 08:51:51;;;;;;;13.27;2.60;;;;;;;9.44;100.00;99859.50;4889317;29;20043;-79
2023/01/12 08:54:22;;;;;;;12.40;2.67;;;;;;;9.47;100.00;99872.66;4923954;29;20055;-79
2023/01/12 08:56:50;;;;;;;;;;;;;;;9.49;100.00;99862.09;4930277;28;20059;-80
2023/01/12 08:59:18;;;;;;;19.02;3.45;;;;;;;9.51;100.00;99870.88;4890771;29;19926;-79
2023/01/12 09:01:45;;;;;;;12.35;2.58;;;;;;;9.53;100.00;99861.22;4924087;29;20048;-79
2023/01/12 09:04:14;;;;;;;13.85;2.92;;;;;;;9.54;100.00;99865.56;4908060;29;20052;-79
2023/01/12 09:06:43;;;;;;;10.82;2.35;;;;;;;9.56;100.00;99874.31;4879833;29;20056;-80
2023/01/12 09:09:14;;;;;;;15.52;2.30;;;;;;;9.57;100.00;99881.34;4910529;29;20070;-80
2023/01/12 09:11:43;;;;;;;13.38;2.67;;;;;;;9.57;100.00;99876.06;4920317;29;20051;-79
2023/01/12 09:14:12;;;;;;;9.55;2.00;;;;;;;9.60;100.00;99877.78;4917623;29;20047;-80
2023/01/12 09:16:41;;;;;;;11.10;2.30;;;;;;;9.62;100.00;99866.41;4915732;29;20064;-79
2023/01/12 09:19:09;;;;;;;15.68;2.72;;;;;;;9.66;100.00;99877.72;4920629;29;20056;-79
2023/01/12 09:21:40;;;;;;;16.88;3.13;;;;;;;9.69;100.00;99894.38;4882851;29;20036;-80
2023/01/12 09:24:07;;;;;;;10.40;2.38;;;;;;;9.69;100.00;99891.75;4914662;29;20075;-78
2023/01/12 09:26:41;;;;;;;10.20;2.53;;;;;;;9.70;100.00;99895.25;4909682;29;20062;-79
2023/01/12 09:29:10;;;;;;;10.43;2.13;;;;;;;9.69;100.00;99901.41;4919326;29;20051;-79
2023/01/12 09:31:40;;;;;;;16.42;2.10;;;;;;;9.68;100.00;99911.06;4925870;29;20051;-79
2023/01/12 09:34:08;;;;;;;10.75;2.55;;;;;;;9.66;100.00;99912.81;4883612;29;20058;-79
2023/01/12 09:36:38;;;;;;;13.15;3.45;;;;;;;9.65;100.00;99905.81;4859439;29;20150;-79
2023/01/12 09:39:07;;;;;;;16.58;3.03;;;;;;;9.64;100.00;99919.88;4923028;29;20056;-80
2023/01/12 09:47:46;;;;;;;10.13;2.78;;;;;;;9.68;100.00;99929.47;4917493;29;20052;-79
2023/01/12 09:50:27;;;;;;;9.93;2.25;;;;;;;9.71;100.00;99953.09;4899650;29;20070;-81
2023/01/12 09:53:15;;;;;;;10.55;2.15;;;;;;;9.75;100.00;99943.44;4887284;29;20051;-80
2023/01/12 09:55:53;;;;;;;11.20;2.55;;;;;;;9.78;100.00;99948.69;4911537;29;20059;-79
2023/01/12 09:58:39;;;;;;;16.30;2.65;;;;;;;9.79;100.00;99942.50;4918229;29;20051;-79
2023/01/12 10:01:12;;;;;;;12.07;2.60;;;;;;;9.80;100.00;99959.19;4926866;29;20060;-79
2023/01/12 10:03:54;;;;;;;14.23;2.90;;;;;;;9.80;100.00;99951.31;4903580;29;20059;-79
2023/01/12 10:06:21;;;;;;;10.15;2.28;;;;;;;9.78;100.00;99974.13;4907825;29;20064;-79
2023/01/12 10:08:54;;;;;;;9.38;2.80;;;;;;;9.75;100.00;99975.91;4879395;29;20063;-79
2023/01/12 10:11:31;;;;;;;10.05;2.03;;;;;;;9.71;100.00;99971.53;4925973;29;20045;-79
2023/01/12 10:14:36;;;;;;;9.57;2.25;;;;;;;9.68;100.00;99966.31;4911536;29;20056;-79
2023/01/12 10:17:18;;;;;;;9.25;2.47;;;;;;;9.66;100.00;99980.31;4937067;28;20059;-79
2023/01/12 10:20:07;;;;;;;13.88;2.67;;;;;;;9.63;100.00;99990.88;4946271;28;20077;-79
2023/01/12 10:22:46;;;;;;;13.10;2.53;;;;;;;9.66;100.00;100006.63;4936337;28;20051;-79
2023/01/12 10:25:23;;;;;;;13.05;2.60;;;;;;;9.68;100.00;99999.63;4931671;28;20981;-79
2023/01/12 10:27:53;;;;;;;12.48;2.15;;;;;;;9.70;100.00;99988.22;4948873;28;20046;-79
2023/01/12 10:30:29;;;;;;;10.30;2.42;;;;;;;9.69;100.00;100018.00;4956733;28;20062;-79
2023/01/12 10:33:18;;;;;;;11.98;2.17;;;;;;;9.71;100.00;100026.75;4935667;28;20046;-79
2023/01/12 10:35:58;;;;;;;7.05;2.05;;;;;;;9.73;100.00;100026.75;4934246;28;23771;-79
2023/01/12 10:38:33;;;;;;;8.40;1.98;;;;;;;9.75;100.00;100018.00;4912095;28;20043;-79
2023/01/12 10:41:22;;;;;;;7.63;1.65;;;;;;;9.80;100.00;100015.31;4937724;28;20085;-80
2023/01/12 10:44:14;;;;;;;8.75;2.28;;;;;;;9.82;100.00;100029.34;4958775;28;20058;-78
2023/01/12 10:46:41;;;;;;;9.25;2.20;;;;;;;9.85;100.00;100033.69;4960137;28;20055;-78
2023/01/12 10:49:23;;;;;;;12.10;2.33;;;;;;;9.86;100.00;100040.72;4934795;28;20050;-78
2023/01/12 10:51:55;;;;;;;10.45;2.33;;;;;;;9.86;100.00;100025.78;4941425;28;20047;-78
2023/01/12 10:54:26;;;;;;;11.10;2.42;;;;;;;9.90;100.00;100037.19;4897678;28;20504;-80
2023/01/12 10:57:17;;;;;;;10.85;2.10;;;;;;;9.88;100.00;100041.56;4952669;28;20047;-78
2023/01/12 10:59:53;;;;;;;7.70;1.65;;;;;;;9.90;100.00;100042.44;4957617;28;20046;-80
2023/01/12 11:02:22;;;;;;;15.80;2.50;;;;;;;9.92;100.00;100053.81;4949264;28;20050;-81
2023/01/12 11:04:52;;;;;;;8.07;2.50;;;;;;;9.93;100.00;100064.34;4938772;28;20055;-79
2023/01/12 11:07:27;;;;;;;7.82;2.03;;;;;;;9.97;100.00;100052.03;4936326;28;20516;-78
2023/01/12 11:10:16;;;;;;;8.50;1.92;;;;;;;10.02;100.00;100046.72;4911311;28;20046;-81
2023/01/12 11:12:57;;;;;;;13.10;2.58;;;;;;;10.06;100.00;100056.38;4943342;28;20047;-79
2023/01/12 11:15:27;;;;;;;11.73;2.35;;;;;;;10.08;100.00;100058.09;4949837;28;20054;-81
2023/01/12 11:18:53;;;;;;;12.00;3.00;;;;;;;10.09;100.00;100059.88;4923039;28;20054;-80
2023/01/12 11:21:27;;;;;;;10.85;2.78;;;;;;;10.10;100.00;100069.50;4923213;28;20055;-80
2023/01/12 11:24:10;;;;;;;9.98;2.03;;;;;;;10.10;100.00;100066.88;4944708;29;20059;-79
2023/01/12 11:26:53;;;;;;;8.27;2.10;;;;;;;10.08;100.00;100073.91;4916315;29;20044;-80
2023/01/12 11:29:34;;;;;;;11.70;2.38;;;;;;;10.06;100.00;100073.03;4940804;29;20180;-80
2023/01/12 11:32:09;;;;;;;;;;;;;;;10.05;100.00;100066.00;4952742;28;20513;-80
2023/01/12 11:34:52;;;;;;;15.50;2.88;;;;;;;10.05;100.00;100060.75;4938482;28;19937;-80
2023/01/12 11:37:19;;;;;;;15.82;2.20;;;;;;;10.02;100.00;100063.44;4939871;28;20055;-79
2023/01/12 11:39:56;;;;;;;12.95;2.63;;;;;;;10.01;100.00;100073.97;4915990;28;20062;-79
2023/01/12 11:45:18;;;;;;;;;;;;;;;10.00;100.00;100074.81;4953153;28;20054;-79
2023/01/12 11:48:01;;;;;;;7.47;1.73;;;;;;;10.00;100.00;100070.47;4954862;28;19955;-80
2023/01/12 11:50:34;;;;;;;9.27;2.22;;;;;;;9.99;100.00;100073.09;4943669;28;20053;-80
2023/01/12 11:53:04;;;;;;;8.73;1.52;;;;;;;9.99;100.00;100070.47;4942144;28;20327;-80
2023/01/12 11:55:52;;;;;;;7.15;1.92;;;;;;;9.97;100.00;100069.59;4918498;28;20049;-80
2023/01/12 11:58:34;;;;;;;5.60;1.45;;;;;;;9.93;100.00;100074.88;4948457;28;20051;-79
2023/01/12 12:01:14;;;;;;;14.95;2.72;;;;;;;9.91;100.00;100076.66;4956211;28;20059;-79
2023/01/12 12:03:56;;;;;;;8.63;1.80;;;;;;;9.89;100.00;100078.41;4949874;28;20822;-80
2023/01/12 12:06:42;;;;;;;13.32;2.38;;;;;;;9.85;100.00;100084.59;4941290;28;20441;-79
2023/01/12 12:09:51;;;;;;;14.98;2.40;;;;;;;9.81;100.00;100080.22;4929657;28;20047;-80
2023/01/12 12:12:37;;;;;;;13.70;2.47;;;;;;;9.78;100.00;100090.75;4932800;28;20419;-80
2023/01/12 12:15:24;;;;;;;9.93;2.75;;;;;;;9.76;100.00;100085.50;4923441;28;20043;-80
2023/01/12 12:18:25;;;;;;;12.80;2.45;;;;;;;9.75;100.00;100085.50;4963332;28;20047;-80
2023/01/12 12:21:19;;;;;;;;;;;;;;;9.73;100.00;100085.53;4940026;28;20043;-80
2023/01/12 12:24:12;;;;;;;8.88;2.30;;;;;;;9.74;100.00;100089.91;4941014;28;19926;-80
2023/01/12 12:26:50;;;;;;;10.63;3.10;;;;;;;9.74;100.00;100099.56;4907000;29;20048;-80
2023/01/12 12:29:54;;;;;;;13.27;2.90;;;;;;;9.76;100.00;100096.03;4946610;28;20062;-79
2023/01/12 12:32:34;;;;;;;12.55;3.65;;;;;;;9.78;100.00;100088.13;4954810;28;20043;-80
2023/01/12 12:35:39;;;;;;;10.65;2.65;;;;;;;9.82;100.00;100091.63;4945377;29;20058;-80